Hubbell, Nebraska
Current Conditions -  °F | °C
As of 3:35 AM on Monday 24 Nov 2014 (Local Time) from KHJH Reporting Station
Clear Clear  
Wind Chill: 24°   Ceiling: Unl
Heat Index: 33°   Visibility: 10mi
Dew Point: 23°   Wind: 10mph
Humidity: 67%   Direction: 320°NW
Pressure: 29.65"   Gusts: NA
Location:  40.01°N, 97.5°W
Report Text: KHJH 240935Z AUTO 32009KT 10SM CLR 00/M05 A2965 RMK AO2 T00031052
Loading
Personal Weather Stations






























Interactive Weather Map New forecast layout! Learn more

10-Day Weather Forecast

Advertisements
Track Severe Weather on mobile